sensor_id;sensor_type;location;lat;lon;timestamp;temperature;humidity
1948;DHT22;974;52.400;9.818;2023-02-28T00:00:17;-0.20;99.90
1948;DHT22;974;52.400;9.818;2023-02-28T00:02:43;-0.20;99.90
1948;DHT22;974;52.400;9.818;2023-02-28T00:05:11;-0.20;99.90
1948;DHT22;974;52.400;9.818;2023-02-28T00:07:37;-0.20;99.90
1948;DHT22;974;52.400;9.818;2023-02-28T00:10:04;-0.20;99.90
1948;DHT22;974;52.400;9.818;2023-02-28T00:12:32;-0.30;99.90
1948;DHT22;974;52.400;9.818;2023-02-28T00:14:57;-0.30;99.90
1948;DHT22;974;52.400;9.818;2023-02-28T00:17:23;-0.30;99.90
1948;DHT22;974;52.400;9.818;2023-02-28T00:19:49;-0.40;99.90
1948;DHT22;974;52.400;9.818;2023-02-28T00:22:15;-0.40;99.90
1948;DHT22;974;52.400;9.818;2023-02-28T00:24:41;-0.40;99.90
1948;DHT22;974;52.400;9.818;2023-02-28T00:27:07;-0.40;99.90
1948;DHT22;974;52.400;9.818;2023-02-28T00:29:32;-0.40;99.90
1948;DHT22;974;52.400;9.818;2023-02-28T00:31:58;-0.40;99.90
1948;DHT22;974;52.400;9.818;2023-02-28T00:34:23;-0.40;99.90
1948;DHT22;974;52.400;9.818;2023-02-28T00:36:49;-0.40;99.90
1948;DHT22;974;52.400;9.818;2023-02-28T00:39:15;-0.30;99.90
1948;DHT22;974;52.400;9.818;2023-02-28T00:41:40;-0.30;99.90
1948;DHT22;974;52.400;9.818;2023-02-28T00:44:05;-0.30;99.90
1948;DHT22;974;52.400;9.818;2023-02-28T00:46:31;-0.30;99.90
1948;DHT22;974;52.400;9.818;2023-02-28T00:48:56;-0.30;99.90
1948;DHT22;974;52.400;9.818;2023-02-28T00:51:22;-0.40;99.90
1948;DHT22;974;52.400;9.818;2023-02-28T00:53:47;-0.40;99.90
1948;DHT22;974;52.400;9.818;2023-02-28T00:56:13;-0.50;99.90
1948;DHT22;974;52.400;9.818;2023-02-28T00:58:39;-0.50;99.90
1948;DHT22;974;52.400;9.818;2023-02-28T01:01:04;-0.60;99.90
1948;DHT22;974;52.400;9.818;2023-02-28T01:03:30;-0.60;99.90
1948;DHT22;974;52.400;9.818;2023-02-28T01:05:55;-0.70;99.90
1948;DHT22;974;52.400;9.818;2023-02-28T01:08:21;-0.70;99.90
1948;DHT22;974;52.400;9.818;2023-02-28T01:10:47;-0.70;99.90
1948;DHT22;974;52.400;9.818;2023-02-28T01:13:14;-0.80;99.90
1948;DHT22;974;52.400;9.818;2023-02-28T01:15:51;-0.90;99.90
1948;DHT22;974;52.400;9.818;2023-02-28T01:18:17;-0.90;99.90
1948;DHT22;974;52.400;9.818;2023-02-28T01:20:43;-0.90;99.90
1948;DHT22;974;52.400;9.818;2023-02-28T01:23:08;-1.00;99.90
1948;DHT22;974;52.400;9.818;2023-02-28T01:25:35;-1.00;99.90
1948;DHT22;974;52.400;9.818;2023-02-28T01:28:01;-1.00;99.90
1948;DHT22;974;52.400;9.818;2023-02-28T01:30:26;-1.10;99.90
1948;DHT22;974;52.400;9.818;2023-02-28T01:32:52;-0.90;99.90
1948;DHT22;974;52.400;9.818;2023-02-28T01:35:19;-1.20;99.90
1948;DHT22;974;52.400;9.818;2023-02-28T01:37:45;-1.20;99.90
1948;DHT22;974;52.400;9.818;2023-02-28T01:40:11;-1.20;99.90
1948;DHT22;974;52.400;9.818;2023-02-28T01:42:37;-1.30;99.90
1948;DHT22;974;52.400;9.818;2023-02-28T01:45:22;-1.30;99.90
1948;DHT22;974;52.400;9.818;2023-02-28T01:47:53;-1.30;99.90
1948;DHT22;974;52.400;9.818;2023-02-28T01:50:28;-1.40;99.90
1948;DHT22;974;52.400;9.818;2023-02-28T01:52:56;-1.40;99.90
1948;DHT22;974;52.400;9.818;2023-02-28T01:55:24;-1.40;99.90
1948;DHT22;974;52.400;9.818;2023-02-28T01:57:56;-1.40;99.90
1948;DHT22;974;52.400;9.818;2023-02-28T02:00:24;-1.50;99.90
1948;DHT22;974;52.400;9.818;2023-02-28T02:02:55;-1.50;99.90
1948;DHT22;974;52.400;9.818;2023-02-28T02:05:24;-1.50;99.90
1948;DHT22;974;52.400;9.818;2023-02-28T02:07:54;-1.60;99.90
1948;DHT22;974;52.400;9.818;2023-02-28T02:10:24;-1.60;99.90
1948;DHT22;974;52.400;9.818;2023-02-28T02:18:44;-1.70;99.90
1948;DHT22;974;52.400;9.818;2023-02-28T02:24:21;-1.70;99.90
1948;DHT22;974;52.400;9.818;2023-02-28T02:29:59;-1.80;99.90
1948;DHT22;974;52.400;9.818;2023-02-28T02:35:40;-1.90;99.90
1948;DHT22;974;52.400;9.818;2023-02-28T02:38:24;-1.90;99.90
1948;DHT22;974;52.400;9.818;2023-02-28T02:43:51;-2.00;99.90
1948;DHT22;974;52.400;9.818;2023-02-28T02:46:26;-2.00;99.90
1948;DHT22;974;52.400;9.818;2023-02-28T02:48:55;-2.00;99.90
1948;DHT22;974;52.400;9.818;2023-02-28T02:51:23;-2.00;99.90
1948;DHT22;974;52.400;9.818;2023-02-28T02:53:56;-2.00;99.90
1948;DHT22;974;52.400;9.818;2023-02-28T02:56:26;-2.10;99.90
1948;DHT22;974;52.400;9.818;2023-02-28T02:58:57;-2.10;99.90
1948;DHT22;974;52.400;9.818;2023-02-28T03:01:25;-2.10;99.90
1948;DHT22;974;52.400;9.818;2023-02-28T03:03:56;-2.10;99.90
1948;DHT22;974;52.400;9.818;2023-02-28T03:06:22;-2.10;99.90
1948;DHT22;974;52.400;9.818;2023-02-28T03:08:47;-2.10;99.90
1948;DHT22;974;52.400;9.818;2023-02-28T03:11:13;-2.10;99.90
1948;DHT22;974;52.400;9.818;2023-02-28T03:13:52;-2.20;99.90
1948;DHT22;974;52.400;9.818;2023-02-28T03:16:33;-2.20;99.90
1948;DHT22;974;52.400;9.818;2023-02-28T03:24:12;-2.20;99.90
1948;DHT22;974;52.400;9.818;2023-02-28T03:26:44;-2.30;99.90
1948;DHT22;974;52.400;9.818;2023-02-28T03:29:28;-2.30;99.90
1948;DHT22;974;52.400;9.818;2023-02-28T03:32:03;-2.30;99.90
1948;DHT22;974;52.400;9.818;2023-02-28T03:34:29;-2.30;99.90
1948;DHT22;974;52.400;9.818;2023-02-28T03:37:00;-2.30;99.90
1948;DHT22;974;52.400;9.818;2023-02-28T03:39:34;-2.20;99.90
1948;DHT22;974;52.400;9.818;2023-02-28T03:42:07;-2.30;99.90
1948;DHT22;974;52.400;9.818;2023-02-28T03:44:38;-2.30;99.90
1948;DHT22;974;52.400;9.818;2023-02-28T03:47:29;-2.40;99.90
1948;DHT22;974;52.400;9.818;2023-02-28T03:50:15;-2.40;99.90
1948;DHT22;974;52.400;9.818;2023-02-28T03:52:49;-2.40;99.90
1948;DHT22;974;52.400;9.818;2023-02-28T03:55:16;-2.50;99.90
1948;DHT22;974;52.400;9.818;2023-02-28T03:58:07;-2.50;99.90
1948;DHT22;974;52.400;9.818;2023-02-28T04:00:40;-2.50;99.90
1948;DHT22;974;52.400;9.818;2023-02-28T04:03:07;-2.50;99.90
1948;DHT22;974;52.400;9.818;2023-02-28T04:05:33;-2.60;99.90
1948;DHT22;974;52.400;9.818;2023-02-28T04:08:10;-2.60;99.90
1948;DHT22;974;52.400;9.818;2023-02-28T04:10:35;-2.60;99.90
1948;DHT22;974;52.400;9.818;2023-02-28T04:13:01;-2.60;99.90
1948;DHT22;974;52.400;9.818;2023-02-28T04:15:26;-2.70;99.90
1948;DHT22;974;52.400;9.818;2023-02-28T04:17:52;-2.70;99.90
1948;DHT22;974;52.400;9.818;2023-02-28T04:20:18;-2.70;99.90
1948;DHT22;974;52.400;9.818;2023-02-28T04:22:43;-2.70;99.90
1948;DHT22;974;52.400;9.818;2023-02-28T04:25:09;-2.70;99.90
1948;DHT22;974;52.400;9.818;2023-02-28T04:27:34;-2.70;99.90
1948;DHT22;974;52.400;9.818;2023-02-28T04:30:00;-2.80;99.90
1948;DHT22;974;52.400;9.818;2023-02-28T04:32:26;-2.80;99.90
1948;DHT22;974;52.400;9.818;2023-02-28T04:34:51;-2.80;99.90
1948;DHT22;974;52.400;9.818;2023-02-28T04:37:17;-2.80;99.90
1948;DHT22;974;52.400;9.818;2023-02-28T04:39:42;-2.80;99.90
1948;DHT22;974;52.400;9.818;2023-02-28T04:42:08;-2.90;99.90
1948;DHT22;974;52.400;9.818;2023-02-28T04:44:34;-2.90;99.90
1948;DHT22;974;52.400;9.818;2023-02-28T04:46:59;-2.90;99.90
1948;DHT22;974;52.400;9.818;2023-02-28T04:49:25;-2.90;99.90
1948;DHT22;974;52.400;9.818;2023-02-28T04:51:50;-2.90;99.90
1948;DHT22;974;52.400;9.818;2023-02-28T04:54:16;-2.90;99.90
1948;DHT22;974;52.400;9.818;2023-02-28T04:56:43;-3.00;99.90
1948;DHT22;974;52.400;9.818;2023-02-28T04:59:08;-3.00;99.90
1948;DHT22;974;52.400;9.818;2023-02-28T05:01:34;-2.90;99.90
1948;DHT22;974;52.400;9.818;2023-02-28T05:04:02;-2.90;99.90
1948;DHT22;974;52.400;9.818;2023-02-28T05:06:30;-3.00;99.90
1948;DHT22;974;52.400;9.818;2023-02-28T05:08:56;-3.00;99.90
1948;DHT22;974;52.400;9.818;2023-02-28T05:11:23;-3.00;99.90
1948;DHT22;974;52.400;9.818;2023-02-28T05:13:50;-3.00;99.90
1948;DHT22;974;52.400;9.818;2023-02-28T05:16:16;-3.00;99.90
1948;DHT22;974;52.400;9.818;2023-02-28T05:18:42;-3.10;99.90
1948;DHT22;974;52.400;9.818;2023-02-28T05:21:23;-3.10;99.90
1948;DHT22;974;52.400;9.818;2023-02-28T05:23:49;-3.10;99.90
1948;DHT22;974;52.400;9.818;2023-02-28T05:26:15;-3.10;99.90
1948;DHT22;974;52.400;9.818;2023-02-28T05:28:40;-3.10;99.90
1948;DHT22;974;52.400;9.818;2023-02-28T05:31:07;-3.00;99.90
1948;DHT22;974;52.400;9.818;2023-02-28T05:33:32;-3.10;99.90
1948;DHT22;974;52.400;9.818;2023-02-28T05:35:58;-3.10;99.90
1948;DHT22;974;52.400;9.818;2023-02-28T05:38:23;-2.80;99.90
1948;DHT22;974;52.400;9.818;2023-02-28T05:40:49;-2.60;99.90
1948;DHT22;974;52.400;9.818;2023-02-28T05:43:14;-2.40;99.90
1948;DHT22;974;52.400;9.818;2023-02-28T05:45:40;-2.40;99.90
1948;DHT22;974;52.400;9.818;2023-02-28T05:48:05;-2.50;99.90
1948;DHT22;974;52.400;9.818;2023-02-28T05:50:31;-2.40;99.90
1948;DHT22;974;52.400;9.818;2023-02-28T05:52:56;-2.40;99.90
1948;DHT22;974;52.400;9.818;2023-02-28T05:55:22;-2.40;99.90
1948;DHT22;974;52.400;9.818;2023-02-28T05:57:47;-2.50;99.90
1948;DHT22;974;52.400;9.818;2023-02-28T06:00:13;-2.50;99.90
1948;DHT22;974;52.400;9.818;2023-02-28T06:02:40;-2.60;99.90
1948;DHT22;974;52.400;9.818;2023-02-28T06:05:13;-2.60;99.90
1948;DHT22;974;52.400;9.818;2023-02-28T06:07:39;-2.60;99.90
1948;DHT22;974;52.400;9.818;2023-02-28T06:10:05;-2.70;99.90
1948;DHT22;974;52.400;9.818;2023-02-28T06:12:30;-2.80;99.90
1948;DHT22;974;52.400;9.818;2023-02-28T06:14:56;-2.80;99.90
1948;DHT22;974;52.400;9.818;2023-02-28T06:17:21;-2.80;99.90
1948;DHT22;974;52.400;9.818;2023-02-28T06:19:47;-2.80;99.90
1948;DHT22;974;52.400;9.818;2023-02-28T06:22:13;-2.90;99.90
1948;DHT22;974;52.400;9.818;2023-02-28T06:24:39;-2.90;99.90
1948;DHT22;974;52.400;9.818;2023-02-28T06:27:04;-3.00;99.90
1948;DHT22;974;52.400;9.818;2023-02-28T06:29:31;-2.90;99.90
1948;DHT22;974;52.400;9.818;2023-02-28T06:31:57;-3.00;99.90
1948;DHT22;974;52.400;9.818;2023-02-28T06:34:23;-3.00;99.90
1948;DHT22;974;52.400;9.818;2023-02-28T06:36:50;-3.00;99.90
1948;DHT22;974;52.400;9.818;2023-02-28T06:39:16;-2.90;99.90
1948;DHT22;974;52.400;9.818;2023-02-28T06:41:42;-2.90;99.90
1948;DHT22;974;52.400;9.818;2023-02-28T06:44:12;-2.90;99.90
1948;DHT22;974;52.400;9.818;2023-02-28T06:46:42;-3.00;99.90
1948;DHT22;974;52.400;9.818;2023-02-28T06:49:08;-2.90;99.90
1948;DHT22;974;52.400;9.818;2023-02-28T06:51:35;-2.90;99.90
1948;DHT22;974;52.400;9.818;2023-02-28T06:54:01;-2.90;99.90
1948;DHT22;974;52.400;9.818;2023-02-28T06:56:26;-2.90;99.90
1948;DHT22;974;52.400;9.818;2023-02-28T06:58:52;-2.90;99.90
1948;DHT22;974;52.400;9.818;2023-02-28T07:01:21;-2.80;99.90
1948;DHT22;974;52.400;9.818;2023-02-28T07:03:50;-2.80;99.90
1948;DHT22;974;52.400;9.818;2023-02-28T07:06:26;-2.80;99.90
1948;DHT22;974;52.400;9.818;2023-02-28T07:08:53;-2.80;99.90
1948;DHT22;974;52.400;9.818;2023-02-28T07:11:24;-2.80;99.90
1948;DHT22;974;52.400;9.818;2023-02-28T07:13:51;-2.80;99.90
1948;DHT22;974;52.400;9.818;2023-02-28T07:16:17;-2.70;99.90
1948;DHT22;974;52.400;9.818;2023-02-28T07:18:43;-2.60;99.90
1948;DHT22;974;52.400;9.818;2023-02-28T07:21:10;-2.50;99.90
1948;DHT22;974;52.400;9.818;2023-02-28T07:23:36;-2.40;99.90
1948;DHT22;974;52.400;9.818;2023-02-28T07:26:04;-2.40;99.90
1948;DHT22;974;52.400;9.818;2023-02-28T07:28:29;-2.30;99.90
1948;DHT22;974;52.400;9.818;2023-02-28T07:30:55;-2.20;99.90
1948;DHT22;974;52.400;9.818;2023-02-28T07:33:20;-2.10;99.90
1948;DHT22;974;52.400;9.818;2023-02-28T07:35:46;-2.00;99.90
1948;DHT22;974;52.400;9.818;2023-02-28T07:38:11;-1.90;99.90
1948;DHT22;974;52.400;9.818;2023-02-28T07:40:38;-1.80;99.90
1948;DHT22;974;52.400;9.818;2023-02-28T07:43:04;-1.70;99.90
1948;DHT22;974;52.400;9.818;2023-02-28T07:45:30;-1.70;99.90
1948;DHT22;974;52.400;9.818;2023-02-28T07:47:57;-1.60;99.90
1948;DHT22;974;52.400;9.818;2023-02-28T07:50:23;-1.60;99.90
1948;DHT22;974;52.400;9.818;2023-02-28T07:52:48;-1.60;99.90
1948;DHT22;974;52.400;9.818;2023-02-28T07:55:14;-1.40;99.90
1948;DHT22;974;52.400;9.818;2023-02-28T07:57:41;-1.50;99.90
1948;DHT22;974;52.400;9.818;2023-02-28T08:00:09;-1.40;99.90
1948;DHT22;974;52.400;9.818;2023-02-28T08:02:35;-1.40;99.90
1948;DHT22;974;52.400;9.818;2023-02-28T08:05:01;-1.30;99.90
1948;DHT22;974;52.400;9.818;2023-02-28T08:07:27;-1.20;99.90
1948;DHT22;974;52.400;9.818;2023-02-28T08:09:52;-1.10;99.90
1948;DHT22;974;52.400;9.818;2023-02-28T08:12:18;-1.10;99.90
1948;DHT22;974;52.400;9.818;2023-02-28T08:14:43;-1.00;99.90
1948;DHT22;974;52.400;9.818;2023-02-28T08:17:10;-0.90;99.90
1948;DHT22;974;52.400;9.818;2023-02-28T08:19:36;-0.80;99.90
1948;DHT22;974;52.400;9.818;2023-02-28T08:22:01;-0.70;99.90
1948;DHT22;974;52.400;9.818;2023-02-28T08:24:27;-0.60;99.90
1948;DHT22;974;52.400;9.818;2023-02-28T08:26:53;-0.60;99.90
1948;DHT22;974;52.400;9.818;2023-02-28T08:29:18;-0.50;99.90
1948;DHT22;974;52.400;9.818;2023-02-28T08:31:43;-0.40;99.90
1948;DHT22;974;52.400;9.818;2023-02-28T08:34:14;-0.30;99.90
1948;DHT22;974;52.400;9.818;2023-02-28T08:36:40;-0.20;99.90
1948;DHT22;974;52.400;9.818;2023-02-28T08:39:07;-0.20;99.90
1948;DHT22;974;52.400;9.818;2023-02-28T08:41:32;-0.10;99.90
1948;DHT22;974;52.400;9.818;2023-02-28T08:43:58;0.00;99.90
1948;DHT22;974;52.400;9.818;2023-02-28T08:46:24;0.10;99.90
1948;DHT22;974;52.400;9.818;2023-02-28T08:48:54;0.20;99.90
1948;DHT22;974;52.400;9.818;2023-02-28T08:51:21;0.30;99.90
1948;DHT22;974;52.400;9.818;2023-02-28T08:53:54;0.40;99.90
1948;DHT22;974;52.400;9.818;2023-02-28T08:56:20;0.50;99.90
1948;DHT22;974;52.400;9.818;2023-02-28T08:58:47;0.60;99.90
1948;DHT22;974;52.400;9.818;2023-02-28T09:01:18;0.70;99.90
1948;DHT22;974;52.400;9.818;2023-02-28T09:03:45;0.80;99.90
1948;DHT22;974;52.400;9.818;2023-02-28T09:06:12;0.90;99.90
1948;DHT22;974;52.400;9.818;2023-02-28T09:08:39;1.00;99.90
1948;DHT22;974;52.400;9.818;2023-02-28T09:11:05;1.10;99.90
1948;DHT22;974;52.400;9.818;2023-02-28T09:13:31;1.20;99.90
1948;DHT22;974;52.400;9.818;2023-02-28T09:15:58;1.30;99.90
1948;DHT22;974;52.400;9.818;2023-02-28T09:18:25;1.40;99.90
1948;DHT22;974;52.400;9.818;2023-02-28T09:20:51;1.50;99.90
1948;DHT22;974;52.400;9.818;2023-02-28T09:23:17;1.60;99.90
1948;DHT22;974;52.400;9.818;2023-02-28T09:26:01;1.80;99.90
1948;DHT22;974;52.400;9.818;2023-02-28T09:28:26;1.80;99.90
1948;DHT22;974;52.400;9.818;2023-02-28T09:30:53;2.00;99.90
1948;DHT22;974;52.400;9.818;2023-02-28T09:33:20;2.00;99.90
1948;DHT22;974;52.400;9.818;2023-02-28T09:35:47;2.10;99.90
1948;DHT22;974;52.400;9.818;2023-02-28T09:38:13;2.20;99.90
1948;DHT22;974;52.400;9.818;2023-02-28T09:40:56;2.30;99.90
1948;DHT22;974;52.400;9.818;2023-02-28T09:43:25;2.30;99.90
1948;DHT22;974;52.400;9.818;2023-02-28T09:45:56;2.40;99.90
1948;DHT22;974;52.400;9.818;2023-02-28T09:48:29;2.50;99.90
1948;DHT22;974;52.400;9.818;2023-02-28T09:51:04;2.60;99.90
1948;DHT22;974;52.400;9.818;2023-02-28T09:53:33;2.70;99.90
1948;DHT22;974;52.400;9.818;2023-02-28T09:56:07;2.70;99.90
1948;DHT22;974;52.400;9.818;2023-02-28T09:58:50;2.80;99.90
1948;DHT22;974;52.400;9.818;2023-02-28T10:01:24;2.90;99.90
1948;DHT22;974;52.400;9.818;2023-02-28T10:03:58;3.00;99.90
1948;DHT22;974;52.400;9.818;2023-02-28T10:06:28;3.00;99.90
1948;DHT22;974;52.400;9.818;2023-02-28T10:11:27;3.20;99.90
1948;DHT22;974;52.400;9.818;2023-02-28T10:14:00;3.30;99.90
1948;DHT22;974;52.400;9.818;2023-02-28T10:16:47;3.40;99.90
1948;DHT22;974;52.400;9.818;2023-02-28T10:21:57;3.60;99.90
1948;DHT22;974;52.400;9.818;2023-02-28T10:24:36;3.60;99.90
1948;DHT22;974;52.400;9.818;2023-02-28T10:27:23;3.70;99.90
1948;DHT22;974;52.400;9.818;2023-02-28T10:32:18;3.90;99.90
1948;DHT22;974;52.400;9.818;2023-02-28T10:34:45;3.90;99.90
1948;DHT22;974;52.400;9.818;2023-02-28T10:37:13;4.00;99.90
1948;DHT22;974;52.400;9.818;2023-02-28T10:39:45;4.10;99.90
1948;DHT22;974;52.400;9.818;2023-02-28T10:42:26;4.20;99.90
1948;DHT22;974;52.400;9.818;2023-02-28T10:45:10;4.20;99.90
1948;DHT22;974;52.400;9.818;2023-02-28T10:48:04;4.40;99.90
1948;DHT22;974;52.400;9.818;2023-02-28T10:56:05;4.70;99.90
1948;DHT22;974;52.400;9.818;2023-02-28T11:01:23;4.90;99.90
1948;DHT22;974;52.400;9.818;2023-02-28T11:03:50;5.10;99.90
1948;DHT22;974;52.400;9.818;2023-02-28T11:06:19;5.40;99.90
1948;DHT22;974;52.400;9.818;2023-02-28T11:08:53;5.40;99.90
1948;DHT22;974;52.400;9.818;2023-02-28T11:11:20;5.60;99.90
1948;DHT22;974;52.400;9.818;2023-02-28T11:13:47;5.60;99.90
1948;DHT22;974;52.400;9.818;2023-02-28T11:16:15;5.80;99.90
1948;DHT22;974;52.400;9.818;2023-02-28T11:18:50;5.80;99.90
1948;DHT22;974;52.400;9.818;2023-02-28T11:21:23;6.00;99.90
1948;DHT22;974;52.400;9.818;2023-02-28T11:23:52;6.10;99.90
1948;DHT22;974;52.400;9.818;2023-02-28T11:26:38;6.00;99.90
1948;DHT22;974;52.400;9.818;2023-02-28T11:29:17;6.10;99.90
1948;DHT22;974;52.400;9.818;2023-02-28T11:32:05;6.20;99.90
1948;DHT22;974;52.400;9.818;2023-02-28T11:34:32;6.20;99.90
1948;DHT22;974;52.400;9.818;2023-02-28T11:36:59;6.10;99.90
1948;DHT22;974;52.400;9.818;2023-02-28T11:39:26;6.10;99.90
1948;DHT22;974;52.400;9.818;2023-02-28T11:47:42;6.40;99.90
1948;DHT22;974;52.400;9.818;2023-02-28T11:50:17;6.70;99.90
1948;DHT22;974;52.400;9.818;2023-02-28T11:52:53;6.90;99.90
1948;DHT22;974;52.400;9.818;2023-02-28T12:00:57;7.30;99.90
1948;DHT22;974;52.400;9.818;2023-02-28T12:06:50;8.00;99.90
1948;DHT22;974;52.400;9.818;2023-02-28T12:14:46;9.30;99.90
1948;DHT22;974;52.400;9.818;2023-02-28T12:17:41;15.50;99.90
1948;DHT22;974;52.400;9.818;2023-02-28T12:20:37;16.60;96.10
1948;DHT22;974;52.400;9.818;2023-02-28T12:26:06;23.90;57.90
1948;DHT22;974;52.400;9.818;2023-02-28T12:28:40;19.50;52.60
1948;DHT22;974;52.400;9.818;2023-02-28T12:31:16;22.90;60.60
1948;DHT22;974;52.400;9.818;2023-02-28T12:33:49;28.70;49.60
1948;DHT22;974;52.400;9.818;2023-02-28T12:36:18;29.90;38.80
1948;DHT22;974;52.400;9.818;2023-02-28T12:42:10;35.20;30.80
1948;DHT22;974;52.400;9.818;2023-02-28T12:44:46;36.20;25.10
1948;DHT22;974;52.400;9.818;2023-02-28T12:47:17;37.40;22.10
1948;DHT22;974;52.400;9.818;2023-02-28T12:49:56;37.30;21.40
1948;DHT22;974;52.400;9.818;2023-02-28T12:52:30;38.60;19.60
1948;DHT22;974;52.400;9.818;2023-02-28T12:55:38;32.50;18.20
1948;DHT22;974;52.400;9.818;2023-02-28T12:58:20;27.70;18.30
1948;DHT22;974;52.400;9.818;2023-02-28T13:01:17;23.50;20.40
1948;DHT22;974;52.400;9.818;2023-02-28T13:06:55;17.00;25.50
1948;DHT22;974;52.400;9.818;2023-02-28T13:09:24;23.10;29.50
1948;DHT22;974;52.400;9.818;2023-02-28T13:11:51;28.00;26.10
1948;DHT22;974;52.400;9.818;2023-02-28T13:19:42;32.30;19.70
1948;DHT22;974;52.400;9.818;2023-02-28T13:22:42;31.50;19.80
1948;DHT22;974;52.400;9.818;2023-02-28T13:28:09;24.60;20.10
1948;DHT22;974;52.400;9.818;2023-02-28T13:33:36;21.20;23.10
1948;DHT22;974;52.400;9.818;2023-02-28T13:36:28;20.60;24.50
1948;DHT22;974;52.400;9.818;2023-02-28T13:39:45;19.70;25.20
1948;DHT22;974;52.400;9.818;2023-02-28T13:41:49;21.10;25.50
1948;DHT22;974;52.400;9.818;2023-02-28T13:44:22;21.70;23.50
1948;DHT22;974;52.400;9.818;2023-02-28T13:57:25;15.20;29.20
1948;DHT22;974;52.400;9.818;2023-02-28T14:06:15;14.20;31.10
1948;DHT22;974;52.400;9.818;2023-02-28T14:09:18;13.70;31.60
1948;DHT22;974;52.400;9.818;2023-02-28T14:11:47;13.50;32.10
1948;DHT22;974;52.400;9.818;2023-02-28T14:17:01;13.10;32.40
1948;DHT22;974;52.400;9.818;2023-02-28T14:19:28;13.00;33.10
1948;DHT22;974;52.400;9.818;2023-02-28T14:27:21;12.30;34.00
1948;DHT22;974;52.400;9.818;2023-02-28T14:35:04;11.60;35.30
1948;DHT22;974;52.400;9.818;2023-02-28T14:37:37;11.30;35.80
1948;DHT22;974;52.400;9.818;2023-02-28T14:40:11;11.00;36.30
1948;DHT22;974;52.400;9.818;2023-02-28T14:42:37;10.60;36.90
1948;DHT22;974;52.400;9.818;2023-02-28T14:45:18;10.50;37.10
1948;DHT22;974;52.400;9.818;2023-02-28T14:47:44;10.40;38.10
1948;DHT22;974;52.400;9.818;2023-02-28T14:50:27;10.30;38.20
1948;DHT22;974;52.400;9.818;2023-02-28T14:52:54;10.10;38.00
1948;DHT22;974;52.400;9.818;2023-02-28T14:55:24;10.00;38.20
1948;DHT22;974;52.400;9.818;2023-02-28T15:00:26;9.70;39.80
1948;DHT22;974;52.400;9.818;2023-02-28T15:02:53;9.40;40.20
1948;DHT22;974;52.400;9.818;2023-02-28T15:05:29;9.20;40.30
1948;DHT22;974;52.400;9.818;2023-02-28T15:08:22;9.10;40.80
1948;DHT22;974;52.400;9.818;2023-02-28T15:10:59;9.00;41.60
1948;DHT22;974;52.400;9.818;2023-02-28T15:13:41;9.00;41.80
1948;DHT22;974;52.400;9.818;2023-02-28T15:16:14;8.80;41.90
1948;DHT22;974;52.400;9.818;2023-02-28T15:18:52;8.70;42.20
1948;DHT22;974;52.400;9.818;2023-02-28T15:21:25;8.50;42.70
1948;DHT22;974;52.400;9.818;2023-02-28T15:24:13;8.50;43.00
1948;DHT22;974;52.400;9.818;2023-02-28T15:26:43;8.50;43.90
1948;DHT22;974;52.400;9.818;2023-02-28T15:29:17;9.10;44.80
1948;DHT22;974;52.400;9.818;2023-02-28T15:32:20;10.30;43.50
1948;DHT22;974;52.400;9.818;2023-02-28T15:34:46;11.10;40.90
1948;DHT22;974;52.400;9.818;2023-02-28T15:39:52;9.90;40.70
1948;DHT22;974;52.400;9.818;2023-02-28T15:42:20;9.30;41.20
1948;DHT22;974;52.400;9.818;2023-02-28T15:44:45;9.00;41.90
1948;DHT22;974;52.400;9.818;2023-02-28T15:47:23;8.50;42.40
1948;DHT22;974;52.400;9.818;2023-02-28T15:49:51;8.30;43.30
1948;DHT22;974;52.400;9.818;2023-02-28T15:52:29;7.90;43.80
1948;DHT22;974;52.400;9.818;2023-02-28T15:54:58;7.80;44.60
1948;DHT22;974;52.400;9.818;2023-02-28T15:57:26;7.60;45.30
1948;DHT22;974;52.400;9.818;2023-02-28T15:59:56;7.50;46.10
1948;DHT22;974;52.400;9.818;2023-02-28T16:02:38;7.30;46.10
1948;DHT22;974;52.400;9.818;2023-02-28T16:07:37;7.00;47.40
1948;DHT22;974;52.400;9.818;2023-02-28T16:10:04;6.80;48.00
1948;DHT22;974;52.400;9.818;2023-02-28T16:12:32;6.60;48.70
1948;DHT22;974;52.400;9.818;2023-02-28T16:15:02;6.40;49.00
1948;DHT22;974;52.400;9.818;2023-02-28T16:17:30;6.30;49.40
1948;DHT22;974;52.400;9.818;2023-02-28T16:19:56;6.30;49.90
1948;DHT22;974;52.400;9.818;2023-02-28T16:22:23;6.10;50.10
1948;DHT22;974;52.400;9.818;2023-02-28T16:24:48;6.00;50.60
1948;DHT22;974;52.400;9.818;2023-02-28T16:27:21;5.80;50.80
1948;DHT22;974;52.400;9.818;2023-02-28T16:29:48;5.70;51.40
1948;DHT22;974;52.400;9.818;2023-02-28T16:32:15;5.60;51.80
1948;DHT22;974;52.400;9.818;2023-02-28T16:34:42;5.50;52.70
1948;DHT22;974;52.400;9.818;2023-02-28T16:37:15;5.40;52.80
1948;DHT22;974;52.400;9.818;2023-02-28T16:39:42;5.30;52.90
1948;DHT22;974;52.400;9.818;2023-02-28T16:42:24;5.20;53.10
1948;DHT22;974;52.400;9.818;2023-02-28T16:44:51;5.10;54.00
1948;DHT22;974;52.400;9.818;2023-02-28T16:47:17;4.90;54.30
1948;DHT22;974;52.400;9.818;2023-02-28T16:49:43;4.80;54.80
1948;DHT22;974;52.400;9.818;2023-02-28T16:52:10;4.80;55.10
1948;DHT22;974;52.400;9.818;2023-02-28T16:54:37;4.70;55.40
1948;DHT22;974;52.400;9.818;2023-02-28T16:57:03;4.60;55.80
1948;DHT22;974;52.400;9.818;2023-02-28T16:59:28;4.50;56.30
1948;DHT22;974;52.400;9.818;2023-02-28T17:01:55;4.50;56.60
1948;DHT22;974;52.400;9.818;2023-02-28T17:04:24;4.40;57.20
1948;DHT22;974;52.400;9.818;2023-02-28T17:06:49;4.20;57.50
1948;DHT22;974;52.400;9.818;2023-02-28T17:09:18;4.10;58.10
1948;DHT22;974;52.400;9.818;2023-02-28T17:11:45;3.90;58.90
1948;DHT22;974;52.400;9.818;2023-02-28T17:14:11;3.80;59.20
1948;DHT22;974;52.400;9.818;2023-02-28T17:16:37;3.60;59.50
1948;DHT22;974;52.400;9.818;2023-02-28T17:19:11;3.60;60.00
1948;DHT22;974;52.400;9.818;2023-02-28T17:21:37;3.40;60.80
1948;DHT22;974;52.400;9.818;2023-02-28T17:24:03;3.30;61.20
1948;DHT22;974;52.400;9.818;2023-02-28T17:26:28;3.20;62.40
1948;DHT22;974;52.400;9.818;2023-02-28T17:28:56;3.10;63.00
1948;DHT22;974;52.400;9.818;2023-02-28T17:31:26;2.90;64.10
1948;DHT22;974;52.400;9.818;2023-02-28T17:33:52;2.80;64.60
1948;DHT22;974;52.400;9.818;2023-02-28T17:36:22;2.70;65.80
1948;DHT22;974;52.400;9.818;2023-02-28T17:38:49;2.60;66.40
1948;DHT22;974;52.400;9.818;2023-02-28T17:41:15;2.40;67.30
1948;DHT22;974;52.400;9.818;2023-02-28T17:43:40;2.30;68.10
1948;DHT22;974;52.400;9.818;2023-02-28T17:46:20;2.20;68.40
1948;DHT22;974;52.400;9.818;2023-02-28T17:48:51;2.10;69.80
1948;DHT22;974;52.400;9.818;2023-02-28T17:51:19;2.00;70.70
1948;DHT22;974;52.400;9.818;2023-02-28T17:53:45;1.90;71.80
1948;DHT22;974;52.400;9.818;2023-02-28T17:56:22;1.80;72.50
1948;DHT22;974;52.400;9.818;2023-02-28T17:58:49;1.80;73.60
1948;DHT22;974;52.400;9.818;2023-02-28T18:01:14;1.70;74.40
1948;DHT22;974;52.400;9.818;2023-02-28T18:03:40;1.60;75.00
1948;DHT22;974;52.400;9.818;2023-02-28T18:06:06;1.50;76.30
1948;DHT22;974;52.400;9.818;2023-02-28T18:08:32;1.40;77.00
1948;DHT22;974;52.400;9.818;2023-02-28T18:11:00;1.40;78.20
1948;DHT22;974;52.400;9.818;2023-02-28T18:13:26;1.30;79.00
1948;DHT22;974;52.400;9.818;2023-02-28T18:15:53;1.20;80.10
1948;DHT22;974;52.400;9.818;2023-02-28T18:18:18;1.20;81.00
1948;DHT22;974;52.400;9.818;2023-02-28T18:20:44;1.20;82.00
1948;DHT22;974;52.400;9.818;2023-02-28T18:23:09;1.10;83.00
1948;DHT22;974;52.400;9.818;2023-02-28T18:25:35;1.00;84.40
1948;DHT22;974;52.400;9.818;2023-02-28T18:28:00;1.00;85.60
1948;DHT22;974;52.400;9.818;2023-02-28T18:30:29;0.90;86.70
1948;DHT22;974;52.400;9.818;2023-02-28T18:32:59;0.90;88.00
1948;DHT22;974;52.400;9.818;2023-02-28T18:35:25;0.90;88.90
1948;DHT22;974;52.400;9.818;2023-02-28T18:40:26;0.80;90.70